createdAt,value
2023-05-13T00:01:20.134Z,10.00
2023-05-13T00:03:47.543Z,9.40
2023-05-13T00:06:14.921Z,9.33
2023-05-13T00:08:42.094Z,8.50
2023-05-13T00:11:09.182Z,8.83
2023-05-13T00:13:36.332Z,10.27
2023-05-13T00:16:03.910Z,10.30
2023-05-13T00:18:31.155Z,9.43
2023-05-13T00:20:58.387Z,9.77
2023-05-13T00:23:25.429Z,9.13
2023-05-13T00:25:52.502Z,9.67
2023-05-13T00:28:21.066Z,11.37
2023-05-13T00:30:49.155Z,9.13
2023-05-13T00:33:16.369Z,14.07
2023-05-13T00:35:43.647Z,9.77
2023-05-13T00:38:11.067Z,10.87
2023-05-13T00:40:43.073Z,9.70
2023-05-13T00:43:10.342Z,9.87
2023-05-13T00:45:37.909Z,10.00
2023-05-13T00:48:07.201Z,11.13
2023-05-13T00:50:34.462Z,14.80
2023-05-13T00:53:02.584Z,14.90
2023-05-13T00:55:29.755Z,10.83
2023-05-13T00:57:56.920Z,11.20
2023-05-13T01:00:24.062Z,10.23
2023-05-13T01:02:58.462Z,10.77
2023-05-13T01:05:29.738Z,14.10
2023-05-13T01:08:09.174Z,10.67
2023-05-13T01:10:43.004Z,10.30
2023-05-13T01:13:14.439Z,10.53
2023-05-13T01:15:46.282Z,9.20
2023-05-13T01:18:16.618Z,10.57
2023-05-13T01:20:43.830Z,10.80
2023-05-13T01:23:14.080Z,10.60
2023-05-13T01:25:41.446Z,12.37
2023-05-13T01:28:09.968Z,11.40
2023-05-13T01:30:37.377Z,10.27
2023-05-13T01:33:04.941Z,10.70
2023-05-13T01:35:32.754Z,10.67
2023-05-13T01:38:00.808Z,10.97
2023-05-13T01:40:32.895Z,10.80
2023-05-13T01:43:00.696Z,11.37
2023-05-13T01:45:32.218Z,11.37
2023-05-13T01:47:59.551Z,12.00
2023-05-13T01:50:26.810Z,11.20
2023-05-13T01:52:54.000Z,11.40
2023-05-13T01:55:21.104Z,11.63
2023-05-13T01:57:48.295Z,10.37
2023-05-13T02:00:15.977Z,12.00
2023-05-13T02:02:43.099Z,11.70
2023-05-13T02:05:10.366Z,11.83
2023-05-13T02:07:37.407Z,11.00
2023-05-13T02:10:04.896Z,12.43
2023-05-13T02:12:32.042Z,13.67
2023-05-13T02:14:59.192Z,16.13
2023-05-13T02:17:26.277Z,14.20
2023-05-13T02:19:53.399Z,12.37
2023-05-13T02:22:20.656Z,14.97
2023-05-13T02:24:49.552Z,13.63
2023-05-13T02:27:16.672Z,11.83
2023-05-13T02:29:43.950Z,12.63
2023-05-13T02:32:11.368Z,11.77
2023-05-13T02:34:38.620Z,12.60
2023-05-13T02:37:06.241Z,12.53
2023-05-13T02:39:33.357Z,13.23
2023-05-13T02:42:00.524Z,12.43
2023-05-13T02:44:28.014Z,13.70
2023-05-13T02:46:55.114Z,12.27
2023-05-13T02:49:22.209Z,12.00
2023-05-13T02:51:49.313Z,13.23
2023-05-13T02:54:16.431Z,12.67
2023-05-13T02:56:43.461Z,12.40
2023-05-13T02:59:11.153Z,13.23
2023-05-13T03:01:38.335Z,13.73
2023-05-13T03:04:05.632Z,12.53
2023-05-13T03:06:32.842Z,11.80
2023-05-13T03:08:59.975Z,12.40
2023-05-13T03:11:27.238Z,14.63
2023-05-13T03:13:54.387Z,13.03
2023-05-13T03:16:21.770Z,12.57
2023-05-13T03:18:48.954Z,13.40
2023-05-13T03:21:16.081Z,14.17
2023-05-13T03:23:43.200Z,12.20
2023-05-13T03:26:10.477Z,12.80
2023-05-13T03:28:37.588Z,14.20
2023-05-13T03:31:05.186Z,12.17
2023-05-13T03:33:38.634Z,13.17
2023-05-13T03:36:07.038Z,12.47
2023-05-13T03:38:34.278Z,15.77
2023-05-13T03:41:01.642Z,13.67
2023-05-13T03:43:28.784Z,16.30
2023-05-13T03:45:55.962Z,13.70
2023-05-13T03:48:23.109Z,12.63
2023-05-13T03:50:50.362Z,15.87
2023-05-13T03:53:20.056Z,13.23
2023-05-13T03:55:47.401Z,13.50
2023-05-13T03:58:18.479Z,12.40
2023-05-13T04:00:46.803Z,15.30
2023-05-13T04:03:16.084Z,15.50
2023-05-13T04:05:43.759Z,18.00
2023-05-13T04:08:11.369Z,15.07
2023-05-13T04:10:38.514Z,13.97
2023-05-13T04:13:06.857Z,14.03
2023-05-13T04:18:19.518Z,13.40
2023-05-13T04:20:46.561Z,13.17
2023-05-13T04:23:13.668Z,12.60
2023-05-13T04:25:42.515Z,13.50
2023-05-13T04:28:09.661Z,14.00
2023-05-13T04:30:36.842Z,13.43
2023-05-13T04:33:04.490Z,13.77
2023-05-13T04:35:31.733Z,13.17
2023-05-13T04:37:58.882Z,14.20
2023-05-13T04:40:26.591Z,12.67
2023-05-13T04:42:55.141Z,12.93
2023-05-13T04:45:22.478Z,12.57
2023-05-13T04:47:49.729Z,12.73
2023-05-13T04:50:16.986Z,12.50
2023-05-13T04:52:51.303Z,13.50
2023-05-13T04:55:18.454Z,14.10
2023-05-13T04:57:45.592Z,12.13
2023-05-13T05:00:13.244Z,11.23
2023-05-13T05:02:40.478Z,12.37
2023-05-13T05:05:07.667Z,12.33
2023-05-13T05:07:35.225Z,16.93
2023-05-13T05:10:02.367Z,15.77
2023-05-13T05:12:31.154Z,15.93
2023-05-13T05:14:58.313Z,10.87
2023-05-13T05:17:26.859Z,12.90
2023-05-13T05:19:53.990Z,11.57
2023-05-13T05:22:22.207Z,10.83
2023-05-13T05:24:49.564Z,11.40
2023-05-13T05:27:16.935Z,10.97
2023-05-13T05:29:44.180Z,11.57
2023-05-13T05:32:11.449Z,13.13
2023-05-13T05:34:38.690Z,16.70
2023-05-13T05:37:05.937Z,11.57
2023-05-13T05:39:32.989Z,11.43
2023-05-13T05:42:00.031Z,10.47
2023-05-13T05:44:27.178Z,10.73
2023-05-13T05:46:54.986Z,12.77
2023-05-13T05:49:22.217Z,10.97
2023-05-13T05:51:49.573Z,10.37
2023-05-13T05:54:16.749Z,10.43
2023-05-13T05:56:43.895Z,10.77
2023-05-13T05:59:11.132Z,12.23
2023-05-13T06:01:41.861Z,11.70
2023-05-13T06:04:09.102Z,9.93
2023-05-13T06:06:36.596Z,11.30
2023-05-13T06:09:03.753Z,10.17
2023-05-13T06:11:31.160Z,10.77
2023-05-13T06:13:58.383Z,10.07
2023-05-13T06:16:25.951Z,8.93
2023-05-13T06:18:53.313Z,11.87
2023-05-13T06:21:20.580Z,8.80
2023-05-13T06:23:47.979Z,9.53
2023-05-13T06:26:15.308Z,9.33
2023-05-13T06:28:42.578Z,9.17
2023-05-13T06:31:09.710Z,9.87
2023-05-13T06:33:37.749Z,8.10
2023-05-13T06:36:05.327Z,7.80
2023-05-13T06:38:35.354Z,8.40
2023-05-13T06:41:02.422Z,7.37
2023-05-13T06:43:29.572Z,12.60
2023-05-13T06:45:56.796Z,8.20
2023-05-13T06:48:24.252Z,6.80
2023-05-13T06:50:51.515Z,6.70
2023-05-13T06:53:19.104Z,8.13
2023-05-13T06:55:46.329Z,11.43
2023-05-13T06:58:13.518Z,6.85
2023-05-13T07:00:41.465Z,7.32
2023-05-13T07:03:09.028Z,6.53
2023-05-13T07:05:36.195Z,8.05
2023-05-13T07:08:06.808Z,8.20
2023-05-13T07:10:34.403Z,6.03
2023-05-13T07:13:04.568Z,5.68
2023-05-13T07:15:31.722Z,8.20
2023-05-13T07:17:58.957Z,12.27
2023-05-13T07:20:26.613Z,12.50
2023-05-13T07:22:53.980Z,5.82
2023-05-13T07:25:21.165Z,6.78
2023-05-13T07:27:48.486Z,9.63
2023-05-13T07:30:15.803Z,5.25
2023-05-13T07:32:43.041Z,8.05
2023-05-13T07:35:10.718Z,9.05
2023-05-13T07:37:37.848Z,12.60
2023-05-13T07:40:06.409Z,10.43
2023-05-13T07:42:33.526Z,6.32
2023-05-13T07:45:01.025Z,6.18
2023-05-13T07:47:29.390Z,6.53
2023-05-13T07:49:56.968Z,5.88
2023-05-13T07:52:24.034Z,6.90
2023-05-13T07:54:51.232Z,7.68
2023-05-13T07:57:18.719Z,5.97
2023-05-13T07:59:45.966Z,6.20
2023-05-13T08:02:13.317Z,5.57
2023-05-13T08:04:40.721Z,6.45
2023-05-13T08:07:07.803Z,6.07
2023-05-13T08:09:34.985Z,8.20
2023-05-13T08:12:02.115Z,5.28
2023-05-13T08:14:29.564Z,4.90
2023-05-13T08:16:57.020Z,7.95
2023-05-13T08:19:24.346Z,7.28
2023-05-13T08:21:51.586Z,9.00
2023-05-13T08:24:18.700Z,6.35
2023-05-13T08:26:45.797Z,6.75
2023-05-13T08:29:15.646Z,5.93
2023-05-13T08:31:43.130Z,9.18
2023-05-13T08:34:10.429Z,8.43
2023-05-13T08:36:37.723Z,5.38
2023-05-13T08:39:05.230Z,4.70
2023-05-13T08:41:33.564Z,5.03
2023-05-13T08:44:01.177Z,7.13
2023-05-13T08:46:31.393Z,8.18
2023-05-13T08:48:59.298Z,6.80
2023-05-13T08:51:26.560Z,8.88
2023-05-13T08:53:54.320Z,4.03
2023-05-13T08:56:25.470Z,7.82
2023-05-13T08:58:52.722Z,6.40
2023-05-13T09:01:20.077Z,8.68
2023-05-13T09:03:56.007Z,4.80
2023-05-13T09:06:24.570Z,5.75
2023-05-13T09:08:51.673Z,9.82
2023-05-13T09:11:19.018Z,5.35
2023-05-13T09:13:46.094Z,5.35
2023-05-13T09:16:14.332Z,8.43
2023-05-13T09:18:42.779Z,5.32
2023-05-13T09:21:23.795Z,5.60
2023-05-13T09:23:51.132Z,6.35
2023-05-13T09:26:28.318Z,8.80
2023-05-13T09:29:13.935Z,7.50
2023-05-13T09:31:41.231Z,9.05
2023-05-13T09:34:08.424Z,7.10
2023-05-13T09:36:35.584Z,6.20
2023-05-13T09:39:03.554Z,4.82
2023-05-13T09:41:31.735Z,7.32
2023-05-13T09:43:59.171Z,7.40
2023-05-13T09:46:26.661Z,7.78
2023-05-13T09:48:57.269Z,5.35
2023-05-13T09:51:27.586Z,5.95
2023-05-13T09:53:55.783Z,4.10
2023-05-13T09:56:26.905Z,8.98
2023-05-13T09:58:53.997Z,6.47
2023-05-13T10:01:22.335Z,5.28
2023-05-13T10:03:49.752Z,7.40
2023-05-13T10:06:18.083Z,3.80
2023-05-13T10:08:47.696Z,6.90
2023-05-13T10:11:15.990Z,5.30
2023-05-13T10:13:44.543Z,7.15
2023-05-13T10:16:12.411Z,3.85
2023-05-13T10:18:39.694Z,7.03
2023-05-13T10:21:06.966Z,10.05
2023-05-13T10:23:37.031Z,7.80
2023-05-13T10:26:08.038Z,6.03
2023-05-13T10:28:35.327Z,6.05
2023-05-13T10:31:02.796Z,8.55
2023-05-13T10:33:30.047Z,4.82
2023-05-13T10:36:13.207Z,11.05
2023-05-13T10:38:55.779Z,8.93
2023-05-13T10:41:23.239Z,12.98
2023-05-13T10:43:57.437Z,10.93
2023-05-13T10:46:24.937Z,20.35
2023-05-13T10:48:55.686Z,7.68
2023-05-13T10:51:26.262Z,4.40
2023-05-13T10:53:54.862Z,3.60
2023-05-13T10:56:23.138Z,8.95
2023-05-13T10:59:03.470Z,4.78
2023-05-13T11:01:43.614Z,5.70
2023-05-13T11:04:16.026Z,10.10
2023-05-13T11:06:44.827Z,4.38
2023-05-13T11:09:32.229Z,4.95
2023-05-13T11:12:00.116Z,8.80
2023-05-13T11:14:28.151Z,4.90
2023-05-13T11:17:01.438Z,4.05
2023-05-13T11:19:29.550Z,6.00
2023-05-13T11:21:57.633Z,7.18
2023-05-13T11:24:25.356Z,4.97
2023-05-13T11:26:54.169Z,7.82
2023-05-13T11:29:29.743Z,8.80
2023-05-13T11:32:00.026Z,4.68
2023-05-13T11:34:27.813Z,8.20
2023-05-13T11:37:03.966Z,6.50
2023-05-13T11:39:31.727Z,4.00
2023-05-13T11:42:01.593Z,7.72
2023-05-13T11:47:11.168Z,7.03
2023-05-13T11:49:44.976Z,19.20
2023-05-13T11:52:13.337Z,7.95
2023-05-13T11:54:49.657Z,6.53
2023-05-13T11:57:27.107Z,4.93
2023-05-13T11:59:58.709Z,9.10
2023-05-13T12:02:26.055Z,5.60
2023-05-13T12:04:53.407Z,8.05
2023-05-13T12:07:21.782Z,6.07
2023-05-13T12:09:49.560Z,5.75
2023-05-13T12:12:17.641Z,7.05
2023-05-13T12:14:46.200Z,5.50
2023-05-13T12:17:14.624Z,5.10
2023-05-13T12:19:41.839Z,8.15
2023-05-13T12:22:08.982Z,12.35
2023-05-13T12:24:36.164Z,9.52
2023-05-13T12:27:08.661Z,12.07
2023-05-13T12:29:40.784Z,11.85
2023-05-13T12:32:08.052Z,6.20
2023-05-13T12:34:35.805Z,4.88
2023-05-13T12:37:12.769Z,7.03
2023-05-13T12:39:43.546Z,4.00
2023-05-13T12:42:17.530Z,6.82
2023-05-13T12:44:44.992Z,6.22
2023-05-13T12:47:13.872Z,4.30
2023-05-13T12:49:53.594Z,5.57
2023-05-13T12:52:21.500Z,5.10
2023-05-13T12:54:49.064Z,4.47
2023-05-13T12:57:17.428Z,8.07
2023-05-13T12:59:48.059Z,5.82
2023-05-13T13:02:15.421Z,8.70
2023-05-13T13:04:42.563Z,4.32
2023-05-13T13:07:12.677Z,5.70
2023-05-13T13:09:39.850Z,5.97
2023-05-13T13:12:07.087Z,4.18
2023-05-13T13:14:34.184Z,6.68
2023-05-13T13:17:01.287Z,10.85
2023-05-13T13:19:28.402Z,13.93
2023-05-13T13:21:55.587Z,5.10
2023-05-13T13:24:22.747Z,5.50
2023-05-13T13:26:50.402Z,5.28
2023-05-13T13:29:17.570Z,5.03
2023-05-13T13:31:45.984Z,4.20
2023-05-13T13:34:13.586Z,5.30
2023-05-13T13:36:40.835Z,4.22
2023-05-13T13:39:08.023Z,10.07
2023-05-13T13:41:35.248Z,7.65
2023-05-13T13:44:02.300Z,5.60
2023-05-13T13:46:29.571Z,5.07
2023-05-13T13:48:56.703Z,5.15
2023-05-13T13:51:23.848Z,5.90
2023-05-13T13:53:50.930Z,6.53
2023-05-13T13:56:18.149Z,5.03
2023-05-13T13:58:45.301Z,4.28
2023-05-13T14:01:12.676Z,6.03
2023-05-13T14:03:40.040Z,5.80
2023-05-13T14:06:07.466Z,6.15
2023-05-13T14:08:34.623Z,6.30
2023-05-13T14:11:01.868Z,4.95
2023-05-13T14:13:29.224Z,6.40
2023-05-13T14:15:56.975Z,6.65
2023-05-13T14:18:24.209Z,5.60
2023-05-13T14:20:51.407Z,4.65
2023-05-13T14:23:19.156Z,5.70
2023-05-13T14:25:46.544Z,8.13
2023-05-13T14:28:15.542Z,7.15
2023-05-13T14:30:42.727Z,5.80
2023-05-13T14:33:09.900Z,6.35
2023-05-13T14:35:37.064Z,7.88
2023-05-13T14:38:04.222Z,4.22
2023-05-13T14:40:31.383Z,4.35
2023-05-13T14:42:58.624Z,6.10
2023-05-13T14:45:25.772Z,3.83
2023-05-13T14:47:53.893Z,7.65
2023-05-13T14:50:21.390Z,5.50
2023-05-13T14:52:48.974Z,5.55
2023-05-13T14:55:16.119Z,5.38
2023-05-13T14:57:43.326Z,3.60
2023-05-13T15:00:10.833Z,5.50
2023-05-13T15:02:38.108Z,4.75
2023-05-13T15:05:05.676Z,4.20
2023-05-13T15:07:32.861Z,3.92
2023-05-13T15:10:00.028Z,6.38
2023-05-13T15:12:27.187Z,5.60
2023-05-13T15:14:54.952Z,4.63
2023-05-13T15:17:22.581Z,3.75
2023-05-13T15:19:49.860Z,4.15
2023-05-13T15:22:17.125Z,8.20
2023-05-13T15:24:44.265Z,6.43
2023-05-13T15:27:11.341Z,5.25
2023-05-13T15:29:38.576Z,4.93
2023-05-13T15:32:06.339Z,3.78
2023-05-13T15:34:33.430Z,8.70
2023-05-13T15:37:00.893Z,4.35
2023-05-13T15:39:28.136Z,4.80
2023-05-13T15:41:55.333Z,7.13
2023-05-13T15:44:22.594Z,4.22
2023-05-13T15:46:49.919Z,6.82
2023-05-13T15:49:17.605Z,6.72
2023-05-13T15:51:44.780Z,5.20
2023-05-13T15:54:12.013Z,4.00
2023-05-13T15:56:39.106Z,4.82
2023-05-13T15:59:06.218Z,9.52
2023-05-13T16:01:33.403Z,8.32
2023-05-13T16:04:00.852Z,4.68
2023-05-13T16:06:27.999Z,4.82
2023-05-13T16:08:56.540Z,8.63
2023-05-13T16:11:24.650Z,4.50
2023-05-13T16:13:52.392Z,5.10
2023-05-13T16:16:20.612Z,8.55
2023-05-13T16:18:47.715Z,6.28
2023-05-13T16:21:14.458Z,5.47
2023-05-13T16:23:41.221Z,12.52
2023-05-13T16:26:08.016Z,9.88
2023-05-13T16:28:34.782Z,7.38
2023-05-13T16:31:01.727Z,8.32
2023-05-13T16:33:30.121Z,7.60
2023-05-13T16:35:56.942Z,5.63
2023-05-13T16:38:25.450Z,4.53
2023-05-13T16:40:52.192Z,5.82
2023-05-13T16:43:18.912Z,6.85
2023-05-13T16:45:45.939Z,6.25
2023-05-13T16:48:14.023Z,6.63
2023-05-13T16:50:41.217Z,8.20
2023-05-13T16:53:07.882Z,8.23
2023-05-13T16:55:35.524Z,6.25
2023-05-13T16:58:03.572Z,5.90
2023-05-13T17:00:30.345Z,6.40
2023-05-13T17:02:57.194Z,8.15
2023-05-13T17:05:23.908Z,5.97
2023-05-13T17:07:50.618Z,8.95
2023-05-13T17:10:17.339Z,5.32
2023-05-13T17:12:44.109Z,6.18
2023-05-13T17:15:11.141Z,5.20
2023-05-13T17:17:40.907Z,5.70
2023-05-13T17:20:08.456Z,9.23
2023-05-13T17:22:35.168Z,9.50
2023-05-13T17:25:01.815Z,6.88
2023-05-13T17:27:28.660Z,6.20
2023-05-13T17:29:55.429Z,7.15
2023-05-13T17:32:22.553Z,4.30
2023-05-13T17:34:49.239Z,5.87
2023-05-13T17:37:15.911Z,8.40
2023-05-13T17:39:42.566Z,5.37
2023-05-13T17:42:09.304Z,8.17
2023-05-13T17:44:36.035Z,7.93
2023-05-13T17:47:02.796Z,8.97
2023-05-13T17:49:29.632Z,6.63
2023-05-13T17:51:56.361Z,6.00
2023-05-13T17:54:23.120Z,5.53
2023-05-13T17:56:50.605Z,4.43
2023-05-13T17:59:17.325Z,5.37
2023-05-13T18:01:44.042Z,4.97
2023-05-13T18:04:11.000Z,6.00
2023-05-13T18:06:37.733Z,7.60
2023-05-13T18:09:04.521Z,6.27
2023-05-13T18:11:31.229Z,4.60
2023-05-13T18:13:57.949Z,4.37
2023-05-13T18:16:24.733Z,5.37
2023-05-13T18:18:51.460Z,7.13
2023-05-13T18:21:18.148Z,5.97
2023-05-13T18:23:46.094Z,9.13
2023-05-13T18:26:12.754Z,4.13
2023-05-13T18:28:42.274Z,4.63
2023-05-13T18:31:09.214Z,8.67
2023-05-13T18:33:35.970Z,5.23
2023-05-13T18:36:02.792Z,13.03
2023-05-13T18:38:29.550Z,6.93
2023-05-13T18:40:56.314Z,5.20
2023-05-13T18:43:23.069Z,7.77
2023-05-13T18:45:49.924Z,4.50
2023-05-13T18:48:16.812Z,10.70
2023-05-13T18:50:43.565Z,4.13
2023-05-13T18:53:10.413Z,5.40
2023-05-13T18:55:39.719Z,6.53
2023-05-13T18:58:06.566Z,3.57
2023-05-13T19:00:33.576Z,4.00
2023-05-13T19:03:00.536Z,4.53
2023-05-13T19:05:27.821Z,5.00
2023-05-13T19:07:55.092Z,6.87
2023-05-13T19:10:22.190Z,6.53
2023-05-13T19:13:14.937Z,4.83
2023-05-13T19:15:41.689Z,4.37
2023-05-13T19:18:08.380Z,3.63
2023-05-13T19:20:35.153Z,4.60
2023-05-13T19:23:01.934Z,6.50
2023-05-13T19:25:29.987Z,5.33
2023-05-13T19:27:57.045Z,4.17
2023-05-13T19:30:23.840Z,4.23
2023-05-13T19:32:50.884Z,4.63
2023-05-13T19:35:17.823Z,4.43
2023-05-13T19:37:44.688Z,4.30
2023-05-13T19:40:11.503Z,5.10
2023-05-13T19:42:38.295Z,6.27
2023-05-13T19:45:09.469Z,6.30
2023-05-13T19:47:38.049Z,9.00
2023-05-13T19:50:05.416Z,6.17
2023-05-13T19:52:32.226Z,8.47
2023-05-13T19:54:58.967Z,7.23
2023-05-13T19:57:28.043Z,5.13
2023-05-13T19:59:55.959Z,5.80
2023-05-13T20:07:57.209Z,14.53
2023-05-13T20:10:24.321Z,7.63
2023-05-13T20:12:51.537Z,10.80
2023-05-13T20:15:18.691Z,5.93
2023-05-13T20:17:45.686Z,6.53
2023-05-13T20:20:15.628Z,6.23
2023-05-13T20:22:42.355Z,10.37
2023-05-13T20:25:09.756Z,5.07
2023-05-13T20:27:36.672Z,6.90
2023-05-13T20:30:04.470Z,6.00
2023-05-13T20:32:31.402Z,7.23
2023-05-13T20:34:58.123Z,6.60
2023-05-13T20:37:24.966Z,6.10
2023-05-13T20:39:51.889Z,5.93
2023-05-13T20:42:21.725Z,5.37
2023-05-13T20:44:48.702Z,14.53
2023-05-13T20:47:16.655Z,13.73
2023-05-13T20:49:43.854Z,8.37
2023-05-13T20:52:11.520Z,8.50
2023-05-13T20:54:38.628Z,7.57
2023-05-13T20:57:05.774Z,8.97
2023-05-13T20:59:32.606Z,8.93
2023-05-13T21:01:59.446Z,6.40
2023-05-13T21:04:26.323Z,6.97
2023-05-13T21:06:53.146Z,7.07
2023-05-13T21:09:20.319Z,6.73
2023-05-13T21:11:47.129Z,6.70
2023-05-13T21:14:13.888Z,7.13
2023-05-13T21:16:40.646Z,6.67
2023-05-13T21:19:07.527Z,7.33
2023-05-13T21:21:34.490Z,8.93
2023-05-13T21:24:01.238Z,6.90
2023-05-13T21:26:28.079Z,7.97
2023-05-13T21:28:54.806Z,8.93
2023-05-13T21:31:21.649Z,7.47
2023-05-13T21:33:49.091Z,7.20
2023-05-13T21:36:16.071Z,9.97
2023-05-13T21:38:42.815Z,7.77
2023-05-13T21:41:09.540Z,7.63
2023-05-13T21:43:36.286Z,8.50
2023-05-13T21:46:03.344Z,7.43
2023-05-13T21:48:30.165Z,11.93
2023-05-13T21:50:56.969Z,8.13
2023-05-13T21:53:23.937Z,8.13
2023-05-13T21:55:51.120Z,10.33
2023-05-13T21:58:17.956Z,8.27
2023-05-13T22:00:45.099Z,11.30
2023-05-13T22:03:12.250Z,8.60
2023-05-13T22:05:43.818Z,9.23
2023-05-13T22:08:11.007Z,13.10
2023-05-13T22:10:38.471Z,8.37
2023-05-13T22:13:06.239Z,9.17
2023-05-13T22:15:32.912Z,9.33
2023-05-13T22:17:59.929Z,12.43
2023-05-13T22:20:26.807Z,9.43
2023-05-13T22:22:53.574Z,11.33
2023-05-13T22:25:21.456Z,9.60
2023-05-13T22:27:48.678Z,9.10
2023-05-13T22:30:18.817Z,10.73
2023-05-13T22:32:45.572Z,14.20
2023-05-13T22:35:14.009Z,9.43
2023-05-13T22:37:40.808Z,10.23
2023-05-13T22:40:09.464Z,14.67
2023-05-13T22:42:36.119Z,14.90
2023-05-13T22:45:03.532Z,12.20
2023-05-13T22:47:30.266Z,12.13
2023-05-13T22:49:56.947Z,14.23
2023-05-13T22:52:23.661Z,11.13
2023-05-13T22:54:50.425Z,11.33
2023-05-13T22:57:17.347Z,13.73
2023-05-13T22:59:44.357Z,9.90
2023-05-13T23:02:11.633Z,12.03
2023-05-13T23:04:39.088Z,11.63
2023-05-13T23:07:05.905Z,10.93
2023-05-13T23:09:32.661Z,11.70
2023-05-13T23:11:59.437Z,12.50
2023-05-13T23:14:27.592Z,12.00
2023-05-13T23:16:54.212Z,10.67
2023-05-13T23:19:20.881Z,11.70
2023-05-13T23:21:47.526Z,13.10
2023-05-13T23:24:14.234Z,11.80
2023-05-13T23:26:42.388Z,10.90
2023-05-13T23:29:09.594Z,10.80
2023-05-13T23:31:36.481Z,11.37
2023-05-13T23:34:03.132Z,10.90
2023-05-13T23:36:29.738Z,14.93
2023-05-13T23:38:56.359Z,10.73
2023-05-13T23:41:23.061Z,10.97
2023-05-13T23:43:49.752Z,10.90
2023-05-13T23:46:16.579Z,10.83
2023-05-13T23:48:43.321Z,12.07
2023-05-13T23:51:10.002Z,10.93
2023-05-13T23:53:36.729Z,12.63
2023-05-13T23:56:03.551Z,11.77
2023-05-13T23:58:30.150Z,12.50
